Pagina principale
METAR-TAF:

METAR-TAF

Aeroporti :

Altenstadt, Germania

latitudine: 47-50N, longitudine: 010-52E, altezza: 739 m

Osservazione

Il bollettino è stato emesso 1 ora e 13 minuti fa, alle 17:20 UTC
Vento 6 kt da nord-ovest
Temperature 13°C
Umidità 82%
Pressione 1007 hPa
Visibilità 10 km o più

METAR: ETHA 301720Z AUTO 31006KT 9999 // ////// 13/10 Q1007 ///

Ora: 20:33 (18:33 UTC)

Previsione

Il bollettino è stato emesso 29 ore e 13 minuti fa, alle 13:20 UTC
Previsione valida dal 29 alle 14 UTC al 29 alle 23 UTC
Vento 10 kt da ovest
Visibilità 10 km o più
Poco nuvoloso ad un'altezza di 5000 ft
Nuvoloso ad un'altezza di 10000 ft
Nuvoloso ad un'altezza di 20000 ft

TAF: ETHA 291320Z 2914/2923 27010KT 9999 NSW FEW050 BKN100 BKN200

Osservazioni e previsioni meteorologiche di più di 4000 aeroporti (messaggi METAR e TAF).

Le stazioni disponibili sono rappresentate dai dischi gialli e rossi sulla carta.

Puntare il mouse per vedere il nome della stazione.

Clicca sopra per visualizzare le osservazioni e previsioni meteorologiche.

Per cambiare la mappa : fare clic sui pulsanti verdi con una croce nera per ingrandire, il pulsante verde con un trattino per diminuire, o sulla freccia verde per le mappe adiacenti.


METAR-TAF: